Belvidere, North Carolina
Current Conditions -  °F | °C
As of 7:15 PM on Tuesday 25 Nov 2014 (Local Time) from KEDE Reporting Station
Overcast Overcast  
Wind Chill: 53°   Ceiling: 11000
Heat Index: 53°   Visibility: 10mi
Dew Point: 50°   Wind: 7mph
Humidity: 91%   Direction: 30°NNE
Pressure: 30.07"   Gusts: NA
Location:  36.27°N, 76.54°W
Report Text: KEDE 260015Z AUTO 03006KT 10SM OVC110 12/10 A3007 RMK AO2 T01150101
Loading
Personal Weather Stations






























Interactive Weather Map New forecast layout! Learn more

10-Day Weather Forecast

Advertisements
Track Severe Weather on mobile